Algosea — CFN4229 — position and weather

sailwx.info

Track history (hours):
 
Tides and Currents Weather Stations Pressure Air Temp Water Temp Dewpoint Dewpoint Depression Visibility Wind Speed Wind Dir Waves Ship Positions

Algosea

Last reported at 2016-Nov-20 17:31 UTC. Time now 2016-Dec-06 12:12 UTC.
Position N 42°48' W 080°03'.
Warning: this ship's position is 15 days out of date.

Length 144 m; draft 6.5 m.

Type: Ship (hazmat cat A). MMSI: 316006868.

Date/timePositionNaut miles runAvg speedWind from/ knotsBaromVisibWave heightAir tempDewpointWater temp
2016-Nov-20 17:31N 42°48' W 080°03'0 0.0
2016-Nov-20 16:32N 42°48' W 080°03'0 0.0
2016-Nov-20 14:32N 42°48' W 080°03'2 2.0
2016-Nov-20 13:33N 42°46' W 080°04'4 3.3
2016-Nov-20 12:29N 42°44' W 080°08'0 0.0
2016-Nov-20 09:29N 42°44' W 080°08'0 0.0
2016-Nov-20 08:29N 42°44' W 080°08'0 0.2
2016-Nov-20 07:33N 42°44' W 080°08'10 9.8
2016-Nov-20 06:33N 42°36' W 080°01'10 9.8
2016-Nov-20 05:33N 42°27' W 080°06'  
2016-Nov-14 15:33N 42°48' W 080°03'5 1.3
2016-Nov-14 11:28N 42°44' W 080°08'0 0.0
2016-Nov-14 08:28N 42°44' W 080°08'0 0.0
2016-Nov-14 05:22N 42°44' W 080°08'0 0.0
2016-Nov-14 00:22N 42°44' W 080°08'0 0.0
2016-Nov-13 23:28N 42°44' W 080°08'0 0.0
2016-Nov-13 22:28N 42°44' W 080°08'0 0.0
2016-Nov-13 19:28N 42°44' W 080°08'0 0.0
2016-Nov-13 18:28N 42°44' W 080°08'0 0.0
2016-Nov-13 17:28N 42°44' W 080°08'0 0.0
2016-Nov-13 15:28N 42°44' W 080°08'0 0.0
2016-Nov-13 13:28N 42°44' W 080°08'0 0.0
2016-Nov-13 10:28N 42°44' W 080°08'0 0.0
2016-Nov-13 08:28N 42°44' W 080°08'0 0.0
2016-Nov-13 05:28N 42°44' W 080°08'0 0.0
2016-Nov-13 03:28N 42°44' W 080°08'3 0.7
2016-Nov-12 23:34N 42°43' W 080°04'48 3.5
2016-Nov-12 09:33N 43°13' W 079°13'246 9.1
2016-Nov-11 06:33N 45°14' W 074°13'9 8.9
2016-Nov-11 05:34N 45°14' W 074°00'6 5.7
2016-Nov-11 04:33N 45°18' W 073°56'1 1.3
2016-Nov-11 03:33N 45°20' W 073°55'8 8.3
2016-Nov-11 02:33N 45°24' W 073°45'7 6.8
2016-Nov-11 01:33N 45°24' W 073°36'3 2.9
2016-Nov-11 00:34N 45°25' W 073°31'  
Track history (hours):
 
Tides and Currents Weather Stations Pressure Air Temp Water Temp Dewpoint Dewpoint Depression Visibility Wind Speed Wind Dir Waves Ship Positions

Algosea

Last reported at 2016-Nov-20 17:31 UTC. Time now 2016-Dec-06 12:12 UTC.
Position N 42°48' W 080°03'.
Warning: this ship's position is 15 days out of date.

Length 144 m; draft 6.5 m.

Type: Ship (hazmat cat A). MMSI: 316006868.

Date/timePositionNaut miles runAvg speedWind from/ knotsBaromVisibWave heightAir tempDewpointWater temp
2016-Nov-20 17:31N 42°48' W 080°03'0 0.0
2016-Nov-20 16:32N 42°48' W 080°03'0 0.0
2016-Nov-20 14:32N 42°48' W 080°03'2 2.0
2016-Nov-20 13:33N 42°46' W 080°04'4 3.3
2016-Nov-20 12:29N 42°44' W 080°08'0 0.0
2016-Nov-20 09:29N 42°44' W 080°08'0 0.0
2016-Nov-20 08:29N 42°44' W 080°08'0 0.2
2016-Nov-20 07:33N 42°44' W 080°08'10 9.8
2016-Nov-20 06:33N 42°36' W 080°01'10 9.8
2016-Nov-20 05:33N 42°27' W 080°06'  
2016-Nov-14 15:33N 42°48' W 080°03'5 1.3
2016-Nov-14 11:28N 42°44' W 080°08'0 0.0
2016-Nov-14 08:28N 42°44' W 080°08'0 0.0
2016-Nov-14 05:22N 42°44' W 080°08'0 0.0
2016-Nov-14 00:22N 42°44' W 080°08'0 0.0
2016-Nov-13 23:28N 42°44' W 080°08'0 0.0
2016-Nov-13 22:28N 42°44' W 080°08'0 0.0
2016-Nov-13 19:28N 42°44' W 080°08'0 0.0
2016-Nov-13 18:28N 42°44' W 080°08'0 0.0
2016-Nov-13 17:28N 42°44' W 080°08'0 0.0
2016-Nov-13 15:28N 42°44' W 080°08'0 0.0
2016-Nov-13 13:28N 42°44' W 080°08'0 0.0
2016-Nov-13 10:28N 42°44' W 080°08'0 0.0
2016-Nov-13 08:28N 42°44' W 080°08'0 0.0
2016-Nov-13 05:28N 42°44' W 080°08'0 0.0
2016-Nov-13 03:28N 42°44' W 080°08'3 0.7
2016-Nov-12 23:34N 42°43' W 080°04'48 3.5
2016-Nov-12 09:33N 43°13' W 079°13'246 9.1
2016-Nov-11 06:33N 45°14' W 074°13'9 8.9
2016-Nov-11 05:34N 45°14' W 074°00'6 5.7
2016-Nov-11 04:33N 45°18' W 073°56'1 1.3
2016-Nov-11 03:33N 45°20' W 073°55'8 8.3
2016-Nov-11 02:33N 45°24' W 073°45'7 6.8
2016-Nov-11 01:33N 45°24' W 073°36'3 2.9
2016-Nov-11 00:34N 45°25' W 073°31'  

Dump ship's entire track history